sensor_id;sensor_type;location;lat;lon;timestamp;P1;durP1;ratioP1;P2;durP2;ratioP2
45043;SDS011;30784;48.490;9.688;2023-04-06T00:01:30;10.32;;;4.72;;
45043;SDS011;30784;48.490;9.688;2023-04-06T00:03:55;9.13;;;4.63;;
45043;SDS011;30784;48.490;9.688;2023-04-06T00:06:21;9.77;;;5.18;;
45043;SDS011;30784;48.490;9.688;2023-04-06T00:08:46;9.20;;;4.22;;
45043;SDS011;30784;48.490;9.688;2023-04-06T00:11:12;10.32;;;4.22;;
45043;SDS011;30784;48.490;9.688;2023-04-06T00:13:38;8.77;;;4.45;;
45043;SDS011;30784;48.490;9.688;2023-04-06T00:16:05;11.93;;;4.88;;
45043;SDS011;30784;48.490;9.688;2023-04-06T00:18:31;9.45;;;4.57;;
45043;SDS011;30784;48.490;9.688;2023-04-06T00:20:57;10.50;;;4.50;;
45043;SDS011;30784;48.490;9.688;2023-04-06T00:23:22;11.32;;;5.10;;
45043;SDS011;30784;48.490;9.688;2023-04-06T00:25:48;10.75;;;5.15;;
45043;SDS011;30784;48.490;9.688;2023-04-06T00:28:13;11.82;;;6.50;;
45043;SDS011;30784;48.490;9.688;2023-04-06T00:30:40;12.05;;;6.15;;
45043;SDS011;30784;48.490;9.688;2023-04-06T00:33:05;13.60;;;6.97;;
45043;SDS011;30784;48.490;9.688;2023-04-06T00:35:31;13.25;;;6.10;;
45043;SDS011;30784;48.490;9.688;2023-04-06T00:37:56;11.13;;;5.35;;
45043;SDS011;30784;48.490;9.688;2023-04-06T00:40:22;11.07;;;4.57;;
45043;SDS011;30784;48.490;9.688;2023-04-06T00:42:48;10.45;;;4.70;;
45043;SDS011;30784;48.490;9.688;2023-04-06T00:45:13;8.95;;;4.30;;
45043;SDS011;30784;48.490;9.688;2023-04-06T00:47:39;12.70;;;4.97;;
45043;SDS011;30784;48.490;9.688;2023-04-06T00:50:05;10.10;;;5.15;;
45043;SDS011;30784;48.490;9.688;2023-04-06T00:52:30;11.68;;;5.25;;
45043;SDS011;30784;48.490;9.688;2023-04-06T00:54:56;11.82;;;5.65;;
45043;SDS011;30784;48.490;9.688;2023-04-06T00:57:22;13.18;;;5.53;;
45043;SDS011;30784;48.490;9.688;2023-04-06T00:59:47;10.63;;;4.75;;
45043;SDS011;30784;48.490;9.688;2023-04-06T01:02:13;12.90;;;5.70;;
45043;SDS011;30784;48.490;9.688;2023-04-06T01:04:38;14.02;;;6.13;;
45043;SDS011;30784;48.490;9.688;2023-04-06T01:07:04;15.00;;;7.00;;
45043;SDS011;30784;48.490;9.688;2023-04-06T01:09:30;13.50;;;6.32;;
45043;SDS011;30784;48.490;9.688;2023-04-06T01:11:56;15.80;;;6.55;;
45043;SDS011;30784;48.490;9.688;2023-04-06T01:14:22;16.13;;;6.72;;
45043;SDS011;30784;48.490;9.688;2023-04-06T01:16:48;13.63;;;6.50;;
45043;SDS011;30784;48.490;9.688;2023-04-06T01:19:14;13.15;;;6.45;;
45043;SDS011;30784;48.490;9.688;2023-04-06T01:21:40;11.63;;;5.47;;
45043;SDS011;30784;48.490;9.688;2023-04-06T01:24:06;10.77;;;4.90;;
45043;SDS011;30784;48.490;9.688;2023-04-06T01:26:32;11.13;;;4.90;;
45043;SDS011;30784;48.490;9.688;2023-04-06T01:28:59;10.30;;;5.07;;
45043;SDS011;30784;48.490;9.688;2023-04-06T01:31:25;11.27;;;4.82;;
45043;SDS011;30784;48.490;9.688;2023-04-06T01:33:51;13.18;;;5.28;;
45043;SDS011;30784;48.490;9.688;2023-04-06T01:36:17;11.48;;;5.32;;
45043;SDS011;30784;48.490;9.688;2023-04-06T01:38:43;9.68;;;3.97;;
45043;SDS011;30784;48.490;9.688;2023-04-06T01:41:08;11.85;;;5.47;;
45043;SDS011;30784;48.490;9.688;2023-04-06T01:43:34;11.05;;;5.75;;
45043;SDS011;30784;48.490;9.688;2023-04-06T01:46:00;11.68;;;6.22;;
45043;SDS011;30784;48.490;9.688;2023-04-06T01:48:28;11.15;;;5.30;;
45043;SDS011;30784;48.490;9.688;2023-04-06T01:50:54;12.00;;;6.13;;
45043;SDS011;30784;48.490;9.688;2023-04-06T01:53:20;10.70;;;5.22;;
45043;SDS011;30784;48.490;9.688;2023-04-06T01:55:46;10.93;;;5.25;;
45043;SDS011;30784;48.490;9.688;2023-04-06T01:58:12;10.20;;;5.05;;
45043;SDS011;30784;48.490;9.688;2023-04-06T02:00:38;10.35;;;5.00;;
45043;SDS011;30784;48.490;9.688;2023-04-06T02:03:03;10.88;;;5.47;;
45043;SDS011;30784;48.490;9.688;2023-04-06T02:05:30;10.50;;;5.15;;
45043;SDS011;30784;48.490;9.688;2023-04-06T02:07:56;12.52;;;6.07;;
45043;SDS011;30784;48.490;9.688;2023-04-06T02:10:22;13.10;;;6.20;;
45043;SDS011;30784;48.490;9.688;2023-04-06T02:12:48;12.00;;;5.97;;
45043;SDS011;30784;48.490;9.688;2023-04-06T02:15:14;11.65;;;5.20;;
45043;SDS011;30784;48.490;9.688;2023-04-06T02:17:40;10.05;;;4.95;;
45043;SDS011;30784;48.490;9.688;2023-04-06T02:20:06;13.80;;;5.45;;
45043;SDS011;30784;48.490;9.688;2023-04-06T02:22:32;10.80;;;5.28;;
45043;SDS011;30784;48.490;9.688;2023-04-06T02:24:58;11.90;;;5.00;;
45043;SDS011;30784;48.490;9.688;2023-04-06T02:27:23;10.07;;;4.97;;
45043;SDS011;30784;48.490;9.688;2023-04-06T02:29:49;10.10;;;5.00;;
45043;SDS011;30784;48.490;9.688;2023-04-06T02:32:15;11.85;;;5.88;;
45043;SDS011;30784;48.490;9.688;2023-04-06T02:34:40;10.80;;;5.20;;
45043;SDS011;30784;48.490;9.688;2023-04-06T02:37:06;11.55;;;5.68;;
45043;SDS011;30784;48.490;9.688;2023-04-06T02:39:31;10.75;;;5.30;;
45043;SDS011;30784;48.490;9.688;2023-04-06T02:41:57;11.93;;;5.45;;
45043;SDS011;30784;48.490;9.688;2023-04-06T02:44:22;10.35;;;5.03;;
45043;SDS011;30784;48.490;9.688;2023-04-06T02:46:48;10.75;;;5.07;;
45043;SDS011;30784;48.490;9.688;2023-04-06T02:49:13;11.82;;;5.90;;
45043;SDS011;30784;48.490;9.688;2023-04-06T02:51:39;11.23;;;5.47;;
45043;SDS011;30784;48.490;9.688;2023-04-06T02:54:05;10.43;;;5.10;;
45043;SDS011;30784;48.490;9.688;2023-04-06T02:56:30;11.52;;;5.15;;
45043;SDS011;30784;48.490;9.688;2023-04-06T02:58:56;10.73;;;5.30;;
45043;SDS011;30784;48.490;9.688;2023-04-06T03:01:21;10.73;;;5.35;;
45043;SDS011;30784;48.490;9.688;2023-04-06T03:03:47;10.35;;;5.07;;
45043;SDS011;30784;48.490;9.688;2023-04-06T03:06:12;10.63;;;4.97;;
45043;SDS011;30784;48.490;9.688;2023-04-06T03:08:38;11.18;;;5.53;;
45043;SDS011;30784;48.490;9.688;2023-04-06T03:11:03;12.35;;;5.68;;
45043;SDS011;30784;48.490;9.688;2023-04-06T03:13:29;11.80;;;5.72;;
45043;SDS011;30784;48.490;9.688;2023-04-06T03:15:55;11.10;;;5.60;;
45043;SDS011;30784;48.490;9.688;2023-04-06T03:18:21;13.25;;;5.15;;
45043;SDS011;30784;48.490;9.688;2023-04-06T03:20:48;10.68;;;5.10;;
45043;SDS011;30784;48.490;9.688;2023-04-06T03:23:14;12.85;;;5.68;;
45043;SDS011;30784;48.490;9.688;2023-04-06T03:25:39;12.25;;;5.82;;
45043;SDS011;30784;48.490;9.688;2023-04-06T03:28:05;11.20;;;4.85;;
45043;SDS011;30784;48.490;9.688;2023-04-06T03:30:30;12.65;;;5.47;;
45043;SDS011;30784;48.490;9.688;2023-04-06T03:32:56;13.30;;;5.63;;
45043;SDS011;30784;48.490;9.688;2023-04-06T03:35:21;12.52;;;5.05;;
45043;SDS011;30784;48.490;9.688;2023-04-06T03:37:47;10.90;;;5.05;;
45043;SDS011;30784;48.490;9.688;2023-04-06T03:40:12;12.00;;;5.43;;
45043;SDS011;30784;48.490;9.688;2023-04-06T03:42:38;12.95;;;5.25;;
45043;SDS011;30784;48.490;9.688;2023-04-06T03:45:04;11.82;;;5.25;;
45043;SDS011;30784;48.490;9.688;2023-04-06T03:47:30;12.43;;;5.43;;
45043;SDS011;30784;48.490;9.688;2023-04-06T03:49:55;10.70;;;5.13;;
45043;SDS011;30784;48.490;9.688;2023-04-06T03:52:21;11.80;;;6.07;;
45043;SDS011;30784;48.490;9.688;2023-04-06T03:54:48;12.23;;;5.57;;
45043;SDS011;30784;48.490;9.688;2023-04-06T03:57:13;11.98;;;5.85;;
45043;SDS011;30784;48.490;9.688;2023-04-06T04:03:01;11.35;;;5.18;;
45043;SDS011;30784;48.490;9.688;2023-04-06T04:05:27;10.15;;;4.80;;
45043;SDS011;30784;48.490;9.688;2023-04-06T04:07:53;12.32;;;5.60;;
45043;SDS011;30784;48.490;9.688;2023-04-06T04:10:18;13.50;;;6.00;;
45043;SDS011;30784;48.490;9.688;2023-04-06T04:12:44;11.45;;;5.47;;
45043;SDS011;30784;48.490;9.688;2023-04-06T04:15:10;11.63;;;5.80;;
45043;SDS011;30784;48.490;9.688;2023-04-06T04:17:35;11.98;;;5.57;;
45043;SDS011;30784;48.490;9.688;2023-04-06T04:20:01;12.05;;;5.40;;
45043;SDS011;30784;48.490;9.688;2023-04-06T04:22:26;13.43;;;5.95;;
45043;SDS011;30784;48.490;9.688;2023-04-06T04:24:52;12.63;;;5.68;;
45043;SDS011;30784;48.490;9.688;2023-04-06T04:27:18;12.18;;;5.57;;
45043;SDS011;30784;48.490;9.688;2023-04-06T04:29:44;13.00;;;6.13;;
45043;SDS011;30784;48.490;9.688;2023-04-06T04:32:10;13.90;;;5.68;;
45043;SDS011;30784;48.490;9.688;2023-04-06T04:34:35;14.10;;;6.35;;
45043;SDS011;30784;48.490;9.688;2023-04-06T04:37:01;12.93;;;6.30;;
45043;SDS011;30784;48.490;9.688;2023-04-06T04:39:26;15.52;;;6.25;;
45043;SDS011;30784;48.490;9.688;2023-04-06T04:41:52;15.02;;;7.60;;
45043;SDS011;30784;48.490;9.688;2023-04-06T04:44:18;14.93;;;7.47;;
45043;SDS011;30784;48.490;9.688;2023-04-06T04:46:44;18.23;;;7.82;;
45043;SDS011;30784;48.490;9.688;2023-04-06T04:49:09;14.50;;;6.78;;
45043;SDS011;30784;48.490;9.688;2023-04-06T04:51:35;14.55;;;7.32;;
45043;SDS011;30784;48.490;9.688;2023-04-06T04:54:01;13.02;;;6.03;;
45043;SDS011;30784;48.490;9.688;2023-04-06T04:56:26;13.05;;;6.53;;
45043;SDS011;30784;48.490;9.688;2023-04-06T04:58:52;15.15;;;7.43;;
45043;SDS011;30784;48.490;9.688;2023-04-06T05:01:18;16.15;;;8.13;;
45043;SDS011;30784;48.490;9.688;2023-04-06T05:03:43;14.75;;;7.25;;
45043;SDS011;30784;48.490;9.688;2023-04-06T05:06:09;12.98;;;6.47;;
45043;SDS011;30784;48.490;9.688;2023-04-06T05:08:34;14.70;;;6.68;;
45043;SDS011;30784;48.490;9.688;2023-04-06T05:11:00;15.15;;;6.95;;
45043;SDS011;30784;48.490;9.688;2023-04-06T05:13:25;15.40;;;6.88;;
45043;SDS011;30784;48.490;9.688;2023-04-06T05:15:51;13.73;;;6.30;;
45043;SDS011;30784;48.490;9.688;2023-04-06T05:18:16;12.70;;;6.38;;
45043;SDS011;30784;48.490;9.688;2023-04-06T05:20:42;13.40;;;6.55;;
45043;SDS011;30784;48.490;9.688;2023-04-06T05:23:08;14.75;;;7.05;;
45043;SDS011;30784;48.490;9.688;2023-04-06T05:25:33;13.02;;;6.30;;
45043;SDS011;30784;48.490;9.688;2023-04-06T05:28:00;12.40;;;6.30;;
45043;SDS011;30784;48.490;9.688;2023-04-06T05:30:26;14.13;;;6.78;;
45043;SDS011;30784;48.490;9.688;2023-04-06T05:32:51;14.25;;;6.63;;
45043;SDS011;30784;48.490;9.688;2023-04-06T05:35:17;14.77;;;6.93;;
45043;SDS011;30784;48.490;9.688;2023-04-06T05:37:42;14.98;;;7.68;;
45043;SDS011;30784;48.490;9.688;2023-04-06T05:40:08;14.70;;;7.43;;
45043;SDS011;30784;48.490;9.688;2023-04-06T05:42:37;14.88;;;7.88;;
45043;SDS011;30784;48.490;9.688;2023-04-06T05:45:04;16.42;;;7.90;;
45043;SDS011;30784;48.490;9.688;2023-04-06T05:47:31;15.48;;;7.43;;
45043;SDS011;30784;48.490;9.688;2023-04-06T05:49:57;17.35;;;8.07;;
45043;SDS011;30784;48.490;9.688;2023-04-06T05:52:22;16.98;;;8.65;;
45043;SDS011;30784;48.490;9.688;2023-04-06T05:54:48;20.08;;;9.02;;
45043;SDS011;30784;48.490;9.688;2023-04-06T05:57:13;19.15;;;9.07;;
45043;SDS011;30784;48.490;9.688;2023-04-06T05:59:39;18.27;;;8.95;;
45043;SDS011;30784;48.490;9.688;2023-04-06T06:02:04;17.58;;;8.02;;
45043;SDS011;30784;48.490;9.688;2023-04-06T06:04:30;16.15;;;8.05;;
45043;SDS011;30784;48.490;9.688;2023-04-06T06:06:56;17.73;;;7.95;;
45043;SDS011;30784;48.490;9.688;2023-04-06T06:09:21;17.63;;;8.27;;
45043;SDS011;30784;48.490;9.688;2023-04-06T06:11:48;15.80;;;7.95;;
45043;SDS011;30784;48.490;9.688;2023-04-06T06:14:13;16.25;;;8.57;;
45043;SDS011;30784;48.490;9.688;2023-04-06T06:16:40;17.48;;;9.32;;
45043;SDS011;30784;48.490;9.688;2023-04-06T06:19:05;17.55;;;10.40;;
45043;SDS011;30784;48.490;9.688;2023-04-06T06:21:31;18.83;;;10.35;;
45043;SDS011;30784;48.490;9.688;2023-04-06T06:23:57;16.58;;;8.98;;
45043;SDS011;30784;48.490;9.688;2023-04-06T06:26:22;16.35;;;8.75;;
45043;SDS011;30784;48.490;9.688;2023-04-06T06:28:48;14.00;;;7.68;;
45043;SDS011;30784;48.490;9.688;2023-04-06T06:31:13;12.98;;;7.00;;
45043;SDS011;30784;48.490;9.688;2023-04-06T06:33:39;15.23;;;8.10;;
45043;SDS011;30784;48.490;9.688;2023-04-06T06:36:04;17.13;;;9.25;;
45043;SDS011;30784;48.490;9.688;2023-04-06T06:38:30;14.82;;;8.15;;
45043;SDS011;30784;48.490;9.688;2023-04-06T06:40:56;12.88;;;6.93;;
45043;SDS011;30784;48.490;9.688;2023-04-06T06:43:21;12.20;;;6.40;;
45043;SDS011;30784;48.490;9.688;2023-04-06T06:45:47;12.98;;;7.05;;
45043;SDS011;30784;48.490;9.688;2023-04-06T06:48:12;12.65;;;6.43;;
45043;SDS011;30784;48.490;9.688;2023-04-06T06:50:38;12.05;;;6.72;;
45043;SDS011;30784;48.490;9.688;2023-04-06T06:53:03;14.05;;;7.07;;
45043;SDS011;30784;48.490;9.688;2023-04-06T06:55:29;13.35;;;6.75;;
45043;SDS011;30784;48.490;9.688;2023-04-06T06:57:54;12.25;;;6.72;;
45043;SDS011;30784;48.490;9.688;2023-04-06T07:00:20;13.25;;;6.38;;
45043;SDS011;30784;48.490;9.688;2023-04-06T07:02:46;13.75;;;6.03;;
45043;SDS011;30784;48.490;9.688;2023-04-06T07:05:12;11.18;;;6.07;;
45043;SDS011;30784;48.490;9.688;2023-04-06T07:07:38;12.55;;;6.55;;
45043;SDS011;30784;48.490;9.688;2023-04-06T07:10:04;13.07;;;6.70;;
45043;SDS011;30784;48.490;9.688;2023-04-06T07:12:30;14.80;;;7.15;;
45043;SDS011;30784;48.490;9.688;2023-04-06T07:14:56;14.02;;;6.57;;
45043;SDS011;30784;48.490;9.688;2023-04-06T07:17:21;13.25;;;6.43;;
45043;SDS011;30784;48.490;9.688;2023-04-06T07:19:47;11.25;;;5.97;;
45043;SDS011;30784;48.490;9.688;2023-04-06T07:22:12;11.60;;;5.88;;
45043;SDS011;30784;48.490;9.688;2023-04-06T07:24:38;10.65;;;5.45;;
45043;SDS011;30784;48.490;9.688;2023-04-06T07:27:03;11.65;;;5.88;;
45043;SDS011;30784;48.490;9.688;2023-04-06T07:29:29;12.32;;;5.88;;
45043;SDS011;30784;48.490;9.688;2023-04-06T07:31:55;12.77;;;5.78;;
45043;SDS011;30784;48.490;9.688;2023-04-06T07:34:21;10.63;;;5.45;;
45043;SDS011;30784;48.490;9.688;2023-04-06T07:36:47;11.45;;;5.82;;
45043;SDS011;30784;48.490;9.688;2023-04-06T07:39:12;10.55;;;4.90;;
45043;SDS011;30784;48.490;9.688;2023-04-06T07:41:38;9.00;;;4.40;;
45043;SDS011;30784;48.490;9.688;2023-04-06T07:44:04;8.52;;;4.00;;
45043;SDS011;30784;48.490;9.688;2023-04-06T07:46:30;9.15;;;4.55;;
45043;SDS011;30784;48.490;9.688;2023-04-06T07:48:56;8.60;;;4.00;;
45043;SDS011;30784;48.490;9.688;2023-04-06T07:51:22;9.63;;;4.45;;
45043;SDS011;30784;48.490;9.688;2023-04-06T07:53:49;9.85;;;4.82;;
45043;SDS011;30784;48.490;9.688;2023-04-06T07:56:15;10.02;;;4.93;;
45043;SDS011;30784;48.490;9.688;2023-04-06T07:58:41;8.45;;;3.97;;
45043;SDS011;30784;48.490;9.688;2023-04-06T08:01:07;8.73;;;4.22;;
45043;SDS011;30784;48.490;9.688;2023-04-06T08:03:35;8.70;;;4.72;;
45043;SDS011;30784;48.490;9.688;2023-04-06T08:06:01;12.45;;;4.95;;
45043;SDS011;30784;48.490;9.688;2023-04-06T08:08:28;10.65;;;4.88;;
45043;SDS011;30784;48.490;9.688;2023-04-06T08:10:54;10.07;;;5.47;;
45043;SDS011;30784;48.490;9.688;2023-04-06T08:13:19;9.80;;;4.85;;
45043;SDS011;30784;48.490;9.688;2023-04-06T08:15:45;10.25;;;5.43;;
45043;SDS011;30784;48.490;9.688;2023-04-06T08:18:11;8.57;;;4.53;;
45043;SDS011;30784;48.490;9.688;2023-04-06T08:20:36;9.68;;;5.10;;
45043;SDS011;30784;48.490;9.688;2023-04-06T08:23:02;8.82;;;4.63;;
45043;SDS011;30784;48.490;9.688;2023-04-06T08:25:27;10.43;;;5.07;;
45043;SDS011;30784;48.490;9.688;2023-04-06T08:27:53;9.68;;;5.00;;
45043;SDS011;30784;48.490;9.688;2023-04-06T08:30:18;9.30;;;4.80;;
45043;SDS011;30784;48.490;9.688;2023-04-06T08:32:44;9.93;;;5.47;;
45043;SDS011;30784;48.490;9.688;2023-04-06T08:35:10;11.40;;;5.88;;
45043;SDS011;30784;48.490;9.688;2023-04-06T08:37:37;10.68;;;5.78;;
45043;SDS011;30784;48.490;9.688;2023-04-06T08:40:02;9.30;;;4.93;;
45043;SDS011;30784;48.490;9.688;2023-04-06T08:42:30;10.82;;;4.95;;
45043;SDS011;30784;48.490;9.688;2023-04-06T08:44:57;14.68;;;8.48;;
45043;SDS011;30784;48.490;9.688;2023-04-06T08:47:23;38.65;;;18.65;;
45043;SDS011;30784;48.490;9.688;2023-04-06T08:53:11;28.27;;;13.55;;
45043;SDS011;30784;48.490;9.688;2023-04-06T08:55:37;14.50;;;7.57;;
45043;SDS011;30784;48.490;9.688;2023-04-06T08:58:03;10.75;;;5.93;;
45043;SDS011;30784;48.490;9.688;2023-04-06T09:00:33;10.23;;;5.40;;
45043;SDS011;30784;48.490;9.688;2023-04-06T09:03:02;8.43;;;4.63;;
45043;SDS011;30784;48.490;9.688;2023-04-06T09:05:30;9.55;;;4.75;;
45043;SDS011;30784;48.490;9.688;2023-04-06T09:07:57;9.50;;;4.88;;
45043;SDS011;30784;48.490;9.688;2023-04-06T09:10:22;8.95;;;4.82;;
45043;SDS011;30784;48.490;9.688;2023-04-06T09:12:50;8.95;;;4.90;;
45043;SDS011;30784;48.490;9.688;2023-04-06T09:15:20;10.15;;;4.95;;
45043;SDS011;30784;48.490;9.688;2023-04-06T09:17:46;8.77;;;4.60;;
45043;SDS011;30784;48.490;9.688;2023-04-06T09:20:12;8.82;;;4.75;;
45043;SDS011;30784;48.490;9.688;2023-04-06T09:22:38;8.80;;;4.50;;
45043;SDS011;30784;48.490;9.688;2023-04-06T09:25:05;8.38;;;4.40;;
45043;SDS011;30784;48.490;9.688;2023-04-06T09:27:34;8.80;;;4.80;;
45043;SDS011;30784;48.490;9.688;2023-04-06T09:30:08;9.10;;;5.35;;
45043;SDS011;30784;48.490;9.688;2023-04-06T09:32:51;9.80;;;5.18;;
45043;SDS011;30784;48.490;9.688;2023-04-06T09:35:18;8.97;;;4.97;;
45043;SDS011;30784;48.490;9.688;2023-04-06T09:37:47;8.63;;;5.00;;
45043;SDS011;30784;48.490;9.688;2023-04-06T09:40:16;9.60;;;5.20;;
45043;SDS011;30784;48.490;9.688;2023-04-06T09:42:47;8.18;;;4.55;;
45043;SDS011;30784;48.490;9.688;2023-04-06T09:45:15;8.85;;;5.15;;
45043;SDS011;30784;48.490;9.688;2023-04-06T09:47:44;9.15;;;5.07;;
45043;SDS011;30784;48.490;9.688;2023-04-06T09:50:11;10.50;;;5.00;;
45043;SDS011;30784;48.490;9.688;2023-04-06T09:52:51;10.60;;;5.57;;
45043;SDS011;30784;48.490;9.688;2023-04-06T09:55:30;8.95;;;5.38;;
45043;SDS011;30784;48.490;9.688;2023-04-06T09:58:04;9.83;;;5.43;;
45043;SDS011;30784;48.490;9.688;2023-04-06T10:00:32;12.82;;;7.10;;
45043;SDS011;30784;48.490;9.688;2023-04-06T10:03:14;11.90;;;7.00;;
45043;SDS011;30784;48.490;9.688;2023-04-06T10:06:13;11.23;;;6.80;;
45043;SDS011;30784;48.490;9.688;2023-04-06T10:08:40;15.15;;;9.13;;
45043;SDS011;30784;48.490;9.688;2023-04-06T10:11:07;11.85;;;7.90;;
45043;SDS011;30784;48.490;9.688;2023-04-06T10:13:36;10.98;;;7.00;;
45043;SDS011;30784;48.490;9.688;2023-04-06T10:16:02;10.63;;;6.28;;
45043;SDS011;30784;48.490;9.688;2023-04-06T10:18:28;9.38;;;5.78;;
45043;SDS011;30784;48.490;9.688;2023-04-06T10:20:55;9.48;;;5.63;;
45043;SDS011;30784;48.490;9.688;2023-04-06T10:23:45;9.43;;;5.70;;
45043;SDS011;30784;48.490;9.688;2023-04-06T10:26:16;10.02;;;5.63;;
45043;SDS011;30784;48.490;9.688;2023-04-06T10:28:45;10.40;;;5.50;;
45043;SDS011;30784;48.490;9.688;2023-04-06T10:31:11;8.70;;;4.78;;
45043;SDS011;30784;48.490;9.688;2023-04-06T10:33:37;8.18;;;4.47;;
45043;SDS011;30784;48.490;9.688;2023-04-06T10:36:13;8.27;;;4.43;;
45043;SDS011;30784;48.490;9.688;2023-04-06T10:38:40;8.85;;;5.00;;
45043;SDS011;30784;48.490;9.688;2023-04-06T10:41:07;7.80;;;4.13;;
45043;SDS011;30784;48.490;9.688;2023-04-06T10:43:35;8.70;;;4.57;;
45043;SDS011;30784;48.490;9.688;2023-04-06T10:46:03;10.48;;;5.25;;
45043;SDS011;30784;48.490;9.688;2023-04-06T10:48:37;18.48;;;12.93;;
45043;SDS011;30784;48.490;9.688;2023-04-06T10:51:16;15.52;;;10.38;;
45043;SDS011;30784;48.490;9.688;2023-04-06T10:53:44;10.05;;;5.93;;
45043;SDS011;30784;48.490;9.688;2023-04-06T10:56:12;9.65;;;5.45;;
45043;SDS011;30784;48.490;9.688;2023-04-06T10:58:49;8.55;;;4.63;;
45043;SDS011;30784;48.490;9.688;2023-04-06T11:01:17;7.40;;;4.22;;
45043;SDS011;30784;48.490;9.688;2023-04-06T11:03:44;7.78;;;4.00;;
45043;SDS011;30784;48.490;9.688;2023-04-06T11:06:10;8.13;;;4.15;;
45043;SDS011;30784;48.490;9.688;2023-04-06T11:08:42;8.13;;;4.07;;
45043;SDS011;30784;48.490;9.688;2023-04-06T11:11:12;7.88;;;4.22;;
45043;SDS011;30784;48.490;9.688;2023-04-06T11:13:53;7.07;;;3.30;;
45043;SDS011;30784;48.490;9.688;2023-04-06T11:16:23;7.28;;;3.50;;
45043;SDS011;30784;48.490;9.688;2023-04-06T11:18:56;7.03;;;3.42;;
45043;SDS011;30784;48.490;9.688;2023-04-06T11:24:27;8.23;;;4.35;;
45043;SDS011;30784;48.490;9.688;2023-04-06T11:26:54;9.27;;;5.43;;
45043;SDS011;30784;48.490;9.688;2023-04-06T11:29:27;10.23;;;6.10;;
45043;SDS011;30784;48.490;9.688;2023-04-06T11:32:01;9.55;;;4.97;;
45043;SDS011;30784;48.490;9.688;2023-04-06T11:34:29;8.75;;;4.28;;
45043;SDS011;30784;48.490;9.688;2023-04-06T11:36:59;7.87;;;4.20;;
45043;SDS011;30784;48.490;9.688;2023-04-06T11:39:27;6.95;;;3.70;;
45043;SDS011;30784;48.490;9.688;2023-04-06T11:41:54;7.68;;;3.65;;
45043;SDS011;30784;48.490;9.688;2023-04-06T11:44:39;6.32;;;3.10;;
45043;SDS011;30784;48.490;9.688;2023-04-06T11:47:10;6.78;;;3.63;;
45043;SDS011;30784;48.490;9.688;2023-04-06T11:49:39;7.47;;;3.15;;
45043;SDS011;30784;48.490;9.688;2023-04-06T11:54:41;6.78;;;3.05;;
45043;SDS011;30784;48.490;9.688;2023-04-06T11:57:07;7.93;;;3.50;;
45043;SDS011;30784;48.490;9.688;2023-04-06T11:59:33;6.70;;;3.40;;
45043;SDS011;30784;48.490;9.688;2023-04-06T12:02:03;7.93;;;4.00;;
45043;SDS011;30784;48.490;9.688;2023-04-06T12:04:29;6.70;;;3.27;;
45043;SDS011;30784;48.490;9.688;2023-04-06T12:06:55;6.25;;;3.10;;
45043;SDS011;30784;48.490;9.688;2023-04-06T12:09:21;6.88;;;3.28;;
45043;SDS011;30784;48.490;9.688;2023-04-06T12:11:46;7.07;;;3.28;;
45043;SDS011;30784;48.490;9.688;2023-04-06T12:14:12;6.53;;;2.97;;
45043;SDS011;30784;48.490;9.688;2023-04-06T12:16:38;7.18;;;3.00;;
45043;SDS011;30784;48.490;9.688;2023-04-06T12:19:04;7.57;;;2.88;;
45043;SDS011;30784;48.490;9.688;2023-04-06T12:21:30;6.80;;;3.13;;
45043;SDS011;30784;48.490;9.688;2023-04-06T12:23:56;5.95;;;2.90;;
45043;SDS011;30784;48.490;9.688;2023-04-06T12:26:23;6.47;;;2.85;;
45043;SDS011;30784;48.490;9.688;2023-04-06T12:28:48;6.55;;;3.00;;
45043;SDS011;30784;48.490;9.688;2023-04-06T12:31:15;6.38;;;2.90;;
45043;SDS011;30784;48.490;9.688;2023-04-06T12:33:41;6.80;;;3.13;;
45043;SDS011;30784;48.490;9.688;2023-04-06T12:36:19;7.15;;;3.25;;
45043;SDS011;30784;48.490;9.688;2023-04-06T12:38:48;6.90;;;3.00;;
45043;SDS011;30784;48.490;9.688;2023-04-06T12:41:15;5.90;;;2.80;;
45043;SDS011;30784;48.490;9.688;2023-04-06T12:43:41;6.30;;;3.10;;
45043;SDS011;30784;48.490;9.688;2023-04-06T12:46:07;6.75;;;3.03;;
45043;SDS011;30784;48.490;9.688;2023-04-06T12:48:34;11.27;;;4.70;;
45043;SDS011;30784;48.490;9.688;2023-04-06T12:51:01;8.18;;;3.53;;
45043;SDS011;30784;48.490;9.688;2023-04-06T12:53:28;8.70;;;4.40;;
45043;SDS011;30784;48.490;9.688;2023-04-06T12:55:54;11.40;;;6.25;;
45043;SDS011;30784;48.490;9.688;2023-04-06T12:58:21;7.60;;;3.92;;
45043;SDS011;30784;48.490;9.688;2023-04-06T13:00:47;7.20;;;3.30;;
45043;SDS011;30784;48.490;9.688;2023-04-06T13:03:13;8.48;;;3.05;;
45043;SDS011;30784;48.490;9.688;2023-04-06T13:05:46;7.13;;;3.15;;
45043;SDS011;30784;48.490;9.688;2023-04-06T13:08:12;7.55;;;4.07;;
45043;SDS011;30784;48.490;9.688;2023-04-06T13:10:43;7.63;;;3.35;;
45043;SDS011;30784;48.490;9.688;2023-04-06T13:13:12;7.97;;;3.42;;
45043;SDS011;30784;48.490;9.688;2023-04-06T13:15:41;6.07;;;3.00;;
45043;SDS011;30784;48.490;9.688;2023-04-06T13:18:07;7.35;;;3.00;;
45043;SDS011;30784;48.490;9.688;2023-04-06T13:20:33;5.75;;;2.75;;
45043;SDS011;30784;48.490;9.688;2023-04-06T13:22:59;6.18;;;3.13;;
45043;SDS011;30784;48.490;9.688;2023-04-06T13:25:25;5.85;;;2.95;;
45043;SDS011;30784;48.490;9.688;2023-04-06T13:27:50;6.30;;;2.90;;
45043;SDS011;30784;48.490;9.688;2023-04-06T13:30:16;6.60;;;2.78;;
45043;SDS011;30784;48.490;9.688;2023-04-06T13:32:42;7.28;;;3.10;;
45043;SDS011;30784;48.490;9.688;2023-04-06T13:35:07;7.45;;;3.15;;
45043;SDS011;30784;48.490;9.688;2023-04-06T13:37:34;6.95;;;2.85;;
45043;SDS011;30784;48.490;9.688;2023-04-06T13:40:00;7.43;;;2.97;;
45043;SDS011;30784;48.490;9.688;2023-04-06T13:42:27;6.70;;;3.00;;
45043;SDS011;30784;48.490;9.688;2023-04-06T13:44:53;7.80;;;3.10;;
45043;SDS011;30784;48.490;9.688;2023-04-06T13:47:19;7.57;;;3.85;;
45043;SDS011;30784;48.490;9.688;2023-04-06T13:49:45;11.00;;;5.60;;
45043;SDS011;30784;48.490;9.688;2023-04-06T13:52:11;7.30;;;3.35;;
45043;SDS011;30784;48.490;9.688;2023-04-06T13:54:37;7.43;;;3.28;;
45043;SDS011;30784;48.490;9.688;2023-04-06T13:57:03;6.63;;;2.70;;
45043;SDS011;30784;48.490;9.688;2023-04-06T13:59:33;7.35;;;2.70;;
45043;SDS011;30784;48.490;9.688;2023-04-06T14:02:02;7.95;;;3.05;;
45043;SDS011;30784;48.490;9.688;2023-04-06T14:04:28;7.13;;;3.00;;
45043;SDS011;30784;48.490;9.688;2023-04-06T14:06:55;7.50;;;3.55;;
45043;SDS011;30784;48.490;9.688;2023-04-06T14:09:21;7.28;;;3.85;;
45043;SDS011;30784;48.490;9.688;2023-04-06T14:11:46;8.00;;;3.78;;
45043;SDS011;30784;48.490;9.688;2023-04-06T14:14:12;7.65;;;3.50;;
45043;SDS011;30784;48.490;9.688;2023-04-06T14:16:37;7.47;;;3.42;;
45043;SDS011;30784;48.490;9.688;2023-04-06T14:19:03;7.05;;;3.30;;
45043;SDS011;30784;48.490;9.688;2023-04-06T14:21:29;7.13;;;3.50;;
45043;SDS011;30784;48.490;9.688;2023-04-06T14:23:54;6.80;;;3.30;;
45043;SDS011;30784;48.490;9.688;2023-04-06T14:26:20;7.25;;;3.38;;
45043;SDS011;30784;48.490;9.688;2023-04-06T14:28:45;6.90;;;3.70;;
45043;SDS011;30784;48.490;9.688;2023-04-06T14:31:12;8.13;;;3.85;;
45043;SDS011;30784;48.490;9.688;2023-04-06T14:33:39;7.38;;;3.53;;
45043;SDS011;30784;48.490;9.688;2023-04-06T14:36:06;8.52;;;3.67;;
45043;SDS011;30784;48.490;9.688;2023-04-06T14:38:32;7.53;;;3.35;;
45043;SDS011;30784;48.490;9.688;2023-04-06T14:40:58;6.97;;;3.10;;
45043;SDS011;30784;48.490;9.688;2023-04-06T14:43:23;9.15;;;4.82;;
45043;SDS011;30784;48.490;9.688;2023-04-06T14:45:50;8.23;;;3.92;;
45043;SDS011;30784;48.490;9.688;2023-04-06T14:48:16;6.65;;;3.30;;
45043;SDS011;30784;48.490;9.688;2023-04-06T14:50:51;6.88;;;3.30;;